Time;durP1;ratioP1;P1;durP2;ratioP2;P2;SDS_P1;SDS_P2;PMS_P1;PMS_P2;Temp;Humidity;BMP_temperature;BMP_pressure;BME280_temperature;BME280_humidity;BME280_pressure;Samples;Min_cycle;Max_cycle;Signal;HPM_P1;HPM_P2
2024/01/14 00:02:43;;;;;;;1999.90;999.90;;;;;;;2.40;100.00;101491.66;10316848;28;20050;-67
2024/01/14 00:07:46;;;;;;;1999.90;999.90;;;;;;;2.41;100.00;101489.94;10332161;28;20050;-68
2024/01/14 00:12:48;;;;;;;1999.90;999.90;;;;;;;2.34;100.00;101498.66;10333658;28;20060;-67
2024/01/14 00:17:50;;;;;;;1999.90;999.90;;;;;;;2.32;100.00;101493.50;10333252;28;20401;-67
2024/01/14 00:22:53;;;;;;;1999.90;999.90;;;;;;;2.39;100.00;101499.44;10333191;28;20050;-67
2024/01/14 00:27:55;;;;;;;1999.90;999.90;;;;;;;2.35;100.00;101483.09;10334784;28;20073;-67
2024/01/14 00:32:58;;;;;;;1999.90;999.90;;;;;;;2.38;100.00;101485.63;10339846;28;20054;-67
2024/01/14 00:38:02;;;;;;;1999.90;999.90;;;;;;;2.19;100.00;101479.84;10340627;28;20478;-67
2024/01/14 00:43:04;;;;;;;1999.90;999.90;;;;;;;2.23;100.00;101475.50;10339318;28;20494;-67
2024/01/14 00:48:06;;;;;;;1999.90;999.90;;;;;;;2.33;100.00;101464.16;10340467;28;20057;-67
2024/01/14 00:53:09;;;;;;;1999.90;999.90;;;;;;;2.41;100.00;101461.50;10340055;28;20480;-67
2024/01/14 00:58:12;;;;;;;1999.90;999.90;;;;;;;2.48;100.00;101480.38;10338684;28;20046;-67
2024/01/14 01:03:14;;;;;;;1999.90;999.90;;;;;;;2.71;100.00;101482.66;10338600;28;20379;-67
2024/01/14 01:08:17;;;;;;;1999.90;999.90;;;;;;;2.54;100.00;101465.63;10339526;28;20046;-67
2024/01/14 01:13:19;;;;;;;1999.90;999.90;;;;;;;2.47;100.00;101453.69;10339586;28;20081;-67
2024/01/14 01:18:21;;;;;;;1999.90;999.90;;;;;;;2.53;100.00;101447.56;10339677;28;20086;-67
2024/01/14 01:23:24;;;;;;;1999.90;999.90;;;;;;;2.35;100.00;101441.75;10337618;28;20054;-67
2024/01/14 01:28:26;;;;;;;1999.90;999.90;;;;;;;2.44;100.00;101437.34;10338657;28;20379;-67
2024/01/14 01:33:29;;;;;;;1999.90;999.90;;;;;;;2.39;100.00;101433.09;10338536;28;20086;-67
2024/01/14 01:38:32;;;;;;;1999.90;999.90;;;;;;;2.23;100.00;101429.84;10337887;28;20042;-67
2024/01/14 01:43:34;;;;;;;1999.90;999.90;;;;;;;2.20;100.00;101426.44;10338095;28;20046;-67
2024/01/14 01:48:37;;;;;;;1999.90;999.90;;;;;;;2.19;100.00;101428.19;10337990;28;20050;-67
2024/01/14 01:53:40;;;;;;;1999.90;999.90;;;;;;;2.29;100.00;101417.75;10337951;28;20093;-67
2024/01/14 01:58:42;;;;;;;1999.90;999.90;;;;;;;2.30;100.00;101401.34;10336442;28;20105;-67
2024/01/14 02:03:45;;;;;;;1999.90;999.90;;;;;;;2.32;100.00;101403.03;10336287;28;20511;-67
2024/01/14 02:08:48;;;;;;;1999.90;999.90;;;;;;;2.35;100.00;101402.97;10336092;28;20050;-66
2024/01/14 02:13:50;;;;;;;1999.90;999.90;;;;;;;2.29;100.00;101400.50;10336127;28;20055;-66
2024/01/14 02:18:52;;;;;;;1999.90;999.90;;;;;;;2.35;100.00;101391.78;10336937;28;20046;-66
2024/01/14 02:24:21;;;;;;;1999.90;999.90;;;;;;;2.33;100.00;101388.38;10336399;28;20402;-66
2024/01/14 02:29:27;;;;;;;1999.90;999.90;;;;;;;2.39;100.00;101385.72;10336453;28;20058;-66
2024/01/14 02:34:30;;;;;;;1999.90;999.90;;;;;;;2.42;100.00;101375.31;10336586;28;20080;-66
2024/01/14 02:39:32;;;;;;;1999.90;999.90;;;;;;;2.32;100.00;101376.31;10334840;28;20410;-66
2024/01/14 02:44:35;;;;;;;1999.90;999.90;;;;;;;2.33;100.00;101365.97;10318749;28;20495;-66
2024/01/14 02:49:37;;;;;;;1999.90;999.90;;;;;;;2.33;100.00;101365.13;10334230;28;20482;-66
2024/01/14 02:54:39;;;;;;;1999.90;999.90;;;;;;;2.39;100.00;101349.53;10335433;28;20105;-66
2024/01/14 02:59:42;;;;;;;1999.90;999.90;;;;;;;2.19;100.00;101355.00;10334048;28;20453;-66
2024/01/14 03:04:44;;;;;;;1999.90;999.90;;;;;;;2.23;100.00;101351.47;10333894;28;20390;-66
2024/01/14 03:09:47;;;;;;;1999.90;999.90;;;;;;;2.27;100.00;101337.66;10334719;28;20054;-66
2024/01/14 03:14:49;;;;;;;1999.90;999.90;;;;;;;2.34;100.00;101334.09;10334929;28;20054;-66
2024/01/14 03:19:51;;;;;;;1999.90;999.90;;;;;;;2.23;100.00;101325.63;10333454;28;20050;-66
2024/01/14 03:24:54;;;;;;;1999.90;999.90;;;;;;;2.17;100.00;101334.34;10333508;28;20054;-66
2024/01/14 03:29:56;;;;;;;1999.90;999.90;;;;;;;2.23;100.00;101326.47;10332933;28;20397;-66
2024/01/14 03:34:59;;;;;;;1999.90;999.90;;;;;;;2.26;100.00;101311.84;10333097;28;20133;-66
2024/01/14 03:40:01;;;;;;;1999.90;999.90;;;;;;;2.22;100.00;101306.72;10333001;28;20048;-66
2024/01/14 03:45:04;;;;;;;1999.90;999.90;;;;;;;2.37;100.00;101312.50;10332915;28;20486;-66
2024/01/14 03:50:07;;;;;;;1999.90;999.90;;;;;;;2.09;100.00;101312.94;10333699;28;20105;-66
2024/01/14 03:55:10;;;;;;;1999.90;999.90;;;;;;;2.07;100.00;101303.47;10332549;28;20060;-66
2024/01/14 04:00:13;;;;;;;1999.90;999.90;;;;;;;2.20;100.00;101299.84;10333813;28;20050;-66
2024/01/14 04:05:15;;;;;;;1999.90;999.90;;;;;;;2.19;100.00;101300.75;10338602;28;20050;-66
2024/01/14 04:10:18;;;;;;;1999.90;999.90;;;;;;;1.93;100.00;101301.94;10340548;28;20133;-66
2024/01/14 04:15:23;;;;;;;1999.90;999.90;;;;;;;2.05;100.00;101285.41;10341769;28;20130;-66
2024/01/14 04:20:26;;;;;;;1999.90;999.90;;;;;;;1.98;100.00;101282.06;10340378;28;20046;-66
2024/01/14 04:25:28;;;;;;;1999.90;999.90;;;;;;;1.98;100.00;101279.47;10341456;28;20141;-66
2024/01/14 04:30:34;;;;;;;1999.90;999.90;;;;;;;2.05;100.00;101267.31;10341549;28;20133;-66
2024/01/14 04:35:37;;;;;;;1999.90;999.90;;;;;;;1.99;100.00;101275.19;10340443;28;20101;-66
2024/01/14 04:40:39;;;;;;;1999.90;999.90;;;;;;;1.87;100.00;101263.31;10340784;28;20043;-66
2024/01/14 04:45:42;;;;;;;1999.90;999.90;;;;;;;1.86;100.00;101265.00;10340881;28;20050;-66
2024/01/14 04:50:44;;;;;;;1999.90;999.90;;;;;;;1.99;100.00;101252.78;10340555;28;20046;-66
2024/01/14 04:55:47;;;;;;;1999.90;999.90;;;;;;;2.07;100.00;101244.94;10340255;28;20100;-66
2024/01/14 05:00:49;;;;;;;1999.90;999.90;;;;;;;1.99;100.00;101241.59;10339890;28;20397;-66
2024/01/14 05:05:53;;;;;;;1999.90;999.90;;;;;;;2.07;100.00;101234.59;10340241;28;20078;-66
2024/01/14 05:10:55;;;;;;;1999.90;999.90;;;;;;;2.00;100.00;101245.88;10339873;28;20097;-66
2024/01/14 05:15:58;;;;;;;1999.90;999.90;;;;;;;1.96;100.00;101221.00;10339794;28;20046;-66
2024/01/14 05:21:00;;;;;;;1999.90;999.90;;;;;;;1.96;100.00;101226.16;10339386;28;20471;-66
2024/01/14 05:26:03;;;;;;;1999.90;999.90;;;;;;;1.92;100.00;101232.25;10338866;28;20524;-66
2024/01/14 05:31:06;;;;;;;1999.90;999.90;;;;;;;1.80;100.00;101228.97;10338665;28;20060;-66
2024/01/14 05:36:08;;;;;;;1999.90;999.90;;;;;;;1.83;100.00;101213.44;10339217;28;20054;-66
2024/01/14 05:41:14;;;;;;;1999.90;999.90;;;;;;;1.77;100.00;101212.66;10338317;28;20457;-66
2024/01/14 05:46:16;;;;;;;1999.90;999.90;;;;;;;1.83;100.00;101200.53;10338726;28;20517;-66
2024/01/14 05:51:19;;;;;;;1999.90;999.90;;;;;;;1.78;100.00;101198.88;10338330;28;20050;-66
2024/01/14 05:56:26;;;;;;;1999.90;999.90;;;;;;;1.66;100.00;101205.94;10337908;28;20054;-66
2024/01/14 06:01:29;;;;;;;1999.90;999.90;;;;;;;1.69;100.00;101191.28;10337802;28;20518;-66
2024/01/14 06:06:31;;;;;;;1999.90;999.90;;;;;;;1.54;100.00;101189.75;10336635;28;20057;-66
2024/01/14 06:11:34;;;;;;;1999.90;999.90;;;;;;;1.57;100.00;101177.66;10337366;28;20130;-66
2024/01/14 06:16:39;;;;;;;1999.90;999.90;;;;;;;1.45;100.00;101180.41;10337246;28;20054;-66
2024/01/14 06:21:43;;;;;;;1999.90;999.90;;;;;;;1.53;100.00;101180.28;10335857;28;20047;-66
2024/01/14 06:26:45;;;;;;;1999.90;999.90;;;;;;;1.55;100.00;101163.09;10335073;28;20130;-66
2024/01/14 06:31:48;;;;;;;1999.90;999.90;;;;;;;1.61;100.00;101170.72;10336715;28;20053;-65
2024/01/14 06:36:50;;;;;;;1999.90;999.90;;;;;;;1.43;100.00;101171.81;10336205;28;20054;-66
2024/01/14 06:41:52;;;;;;;1999.90;999.90;;;;;;;1.50;100.00;101155.41;10335001;28;20057;-65
2024/01/14 06:46:55;;;;;;;1999.90;999.90;;;;;;;1.43;100.00;101144.31;10336408;28;20088;-65
2024/01/14 06:51:57;;;;;;;1999.90;999.90;;;;;;;1.41;100.00;101140.91;10335652;28;20061;-66
2024/01/14 06:56:59;;;;;;;1999.90;999.90;;;;;;;1.27;100.00;101128.16;10335434;28;20449;-65
2024/01/14 07:02:02;;;;;;;1999.90;999.90;;;;;;;1.42;100.00;101136.59;10334516;28;20159;-66
2024/01/14 07:07:04;;;;;;;1999.90;999.90;;;;;;;1.48;100.00;101139.09;10335554;28;20133;-66
2024/01/14 07:12:08;;;;;;;1999.90;999.90;;;;;;;1.36;100.00;101131.50;10335028;28;20084;-66
2024/01/14 07:17:10;;;;;;;1999.90;999.90;;;;;;;1.42;100.00;101131.41;10317409;28;20490;-66
2024/01/14 07:22:13;;;;;;;1999.90;999.90;;;;;;;1.37;100.00;101134.06;10333314;28;20489;-66
2024/01/14 07:27:15;;;;;;;1999.90;999.90;;;;;;;1.30;100.00;101129.88;10332961;28;20057;-66
2024/01/14 07:32:17;;;;;;;1999.90;999.90;;;;;;;1.19;100.00;101139.47;10349410;28;20050;-66
2024/01/14 07:37:20;;;;;;;1999.90;999.90;;;;;;;1.42;100.00;101121.94;10332491;28;20058;-66
2024/01/14 07:42:22;;;;;;;1999.90;999.90;;;;;;;1.22;100.00;101114.47;10334221;28;20137;-66
2024/01/14 07:47:25;;;;;;;1999.90;999.90;;;;;;;1.40;100.00;101125.44;10333845;28;20057;-66
2024/01/14 07:52:27;;;;;;;1999.90;999.90;;;;;;;1.28;100.00;101119.56;10333874;28;20058;-65
2024/01/14 07:57:30;;;;;;;1999.90;999.90;;;;;;;1.30;100.00;101117.81;10333633;28;20493;-66
2024/01/14 08:02:32;;;;;;;1999.90;999.90;;;;;;;1.36;100.00;101122.06;10333774;28;20051;-66
2024/01/14 08:07:35;;;;;;;1999.90;999.90;;;;;;;1.49;100.00;101118.38;10332337;28;20482;-66
2024/01/14 08:12:37;;;;;;;1999.90;999.90;;;;;;;1.43;100.00;101115.91;10333307;28;20133;-66
2024/01/14 08:17:43;;;;;;;1999.90;999.90;;;;;;;1.39;100.00;101118.56;10333439;28;20058;-66
2024/01/14 08:22:46;;;;;;;1999.90;999.90;;;;;;;1.42;100.00;101115.94;10332117;28;20057;-66
2024/01/14 08:27:51;;;;;;;1999.90;999.90;;;;;;;1.46;100.00;101122.75;10332100;28;20104;-66
2024/01/14 08:32:53;;;;;;;1999.90;999.90;;;;;;;1.42;100.00;101121.09;10332950;28;20397;-66
2024/01/14 08:37:55;;;;;;;1999.90;999.90;;;;;;;1.40;100.00;101121.13;10347834;22;20411;-70
2024/01/14 08:42:58;;;;;;;1999.90;999.90;;;;;;;1.56;100.00;101108.00;10332977;28;20057;-70
2024/01/14 08:48:00;;;;;;;1999.90;999.90;;;;;;;1.46;100.00;101115.88;10332386;28;20062;-70
2024/01/14 08:53:03;;;;;;;1999.90;999.90;;;;;;;1.56;100.00;101102.81;10340436;28;20053;-70
2024/01/14 08:58:05;;;;;;;1999.90;999.90;;;;;;;1.62;100.00;101101.00;10340113;28;20057;-70
2024/01/14 09:03:08;;;;;;;1999.90;999.90;;;;;;;1.75;100.00;101090.47;10338802;28;20401;-70
2024/01/14 09:08:10;;;;;;;1999.90;999.90;;;;;;;1.62;100.00;101082.09;10339821;28;20121;-70
2024/01/14 09:13:13;;;;;;;1999.90;999.90;;;;;;;1.64;100.00;101094.09;10338408;28;20548;-70
2024/01/14 09:18:16;;;;;;;1999.90;999.90;;;;;;;1.57;100.00;101081.31;10339334;28;20522;-70
2024/01/14 09:23:19;;;;;;;1999.90;999.90;;;;;;;1.50;100.00;101083.13;10339008;28;20406;-70
2024/01/14 09:28:24;;;;;;;1999.90;999.90;;;;;;;1.54;100.00;101077.03;10341251;28;20489;-70
2024/01/14 09:33:26;;;;;;;1999.90;999.90;;;;;;;1.65;100.00;101067.41;10371374;28;20133;-70
2024/01/14 09:38:29;;;;;;;1999.90;999.90;;;;;;;1.98;100.00;101067.69;10320471;28;20054;-70
2024/01/14 09:43:33;;;;;;;1999.90;999.90;;;;;;;1.81;100.00;101078.31;10336447;28;20042;-69
2024/01/14 09:48:36;;;;;;;1999.90;999.90;;;;;;;1.73;100.00;101074.16;10347806;28;20069;-70
2024/01/14 09:53:41;;;;;;;1999.90;999.90;;;;;;;1.72;100.00;101070.75;10316748;28;20105;-69
2024/01/14 09:58:46;;;;;;;1999.90;999.90;;;;;;;1.86;100.00;101065.34;10324272;28;20057;-70
2024/01/14 10:03:52;;;;;;;1999.90;999.90;;;;;;;1.83;100.00;101065.38;10339192;28;20124;-71
2024/01/14 10:08:56;;;;;;;1999.90;999.90;;;;;;;1.85;100.00;101063.66;10321604;28;20057;-70
2024/01/14 10:13:59;;;;;;;1999.90;999.90;;;;;;;1.67;100.00;101070.81;10312580;28;20073;-70
2024/01/14 10:19:02;;;;;;;1999.90;999.90;;;;;;;1.97;100.00;101066.03;10334806;28;20429;-71
2024/01/14 10:24:05;;;;;;;1999.90;999.90;;;;;;;1.93;100.00;101055.75;10318058;28;20126;-70
2024/01/14 10:29:07;;;;;;;1999.90;999.90;;;;;;;1.78;100.00;101031.94;10335540;28;20050;-70
2024/01/14 10:34:10;;;;;;;1999.90;999.90;;;;;;;1.95;100.00;101017.84;10335228;28;20050;-70
2024/01/14 10:39:12;;;;;;;1999.90;999.90;;;;;;;1.98;100.00;101021.22;10334954;28;20093;-70
2024/01/14 10:44:16;;;;;;;1999.90;999.90;;;;;;;2.09;100.00;101002.97;10336092;28;20118;-70
2024/01/14 10:49:24;;;;;;;1999.90;999.90;;;;;;;1.74;100.00;100986.38;10335373;28;20090;-70
2024/01/14 10:54:50;;;;;;;1999.90;999.90;;;;;;;1.95;100.00;100979.97;10335714;28;20065;-70
2024/01/14 10:59:57;;;;;;;1999.90;999.90;;;;;;;1.84;100.00;100972.41;10335988;28;20080;-70
2024/01/14 11:05:00;;;;;;;1999.90;999.90;;;;;;;1.84;100.00;100969.00;10335438;28;20153;-70
2024/01/14 11:10:04;;;;;;;1999.90;999.90;;;;;;;2.00;100.00;100961.78;10335175;28;20100;-70
2024/01/14 11:15:17;;;;;;;1999.90;999.90;;;;;;;2.13;100.00;100950.34;10334945;28;20054;-70
2024/01/14 11:20:25;;;;;;;1999.90;999.90;;;;;;;2.14;100.00;100951.22;10335101;28;20053;-70
2024/01/14 11:25:35;;;;;;;1999.90;999.90;;;;;;;2.04;100.00;100938.47;10333612;28;20050;-70
2024/01/14 11:30:59;;;;;;;1999.90;999.90;;;;;;;2.08;100.00;100926.34;10334487;28;20140;-70
2024/01/14 11:36:02;;;;;;;1999.90;999.90;;;;;;;2.17;100.00;100921.00;10334346;28;20074;-70
2024/01/14 11:41:37;;;;;;;1999.90;999.90;;;;;;;2.04;100.00;100914.38;10332855;28;20501;-70
2024/01/14 11:46:41;;;;;;;1999.90;999.90;;;;;;;2.41;100.00;100906.69;10281410;28;20490;-70
2024/01/14 11:51:59;;;;;;;1999.90;999.90;;;;;;;2.28;100.00;100876.84;10332682;28;20109;-70
2024/01/14 11:57:21;;;;;;;1999.90;999.90;;;;;;;2.18;100.00;100862.44;10332758;28;20133;-70
2024/01/14 12:02:24;;;;;;;1999.90;999.90;;;;;;;2.31;100.00;100858.69;10333841;28;20051;-70
2024/01/14 12:07:26;;;;;;;1999.90;999.90;;;;;;;2.54;100.00;100859.91;10333787;28;20061;-70
2024/01/14 12:12:30;;;;;;;1999.90;999.90;;;;;;;2.45;100.00;100844.63;10332174;28;20521;-69
2024/01/14 12:17:32;;;;;;;1999.90;999.90;;;;;;;2.39;100.00;100832.69;10332504;28;20089;-69
2024/01/14 12:22:35;;;;;;;1999.90;999.90;;;;;;;2.37;100.00;100827.56;10333253;28;20097;-69
2024/01/14 12:27:38;;;;;;;1999.90;999.90;;;;;;;2.32;100.00;100813.91;10340154;28;20449;-69
2024/01/14 12:32:40;;;;;;;1999.90;999.90;;;;;;;2.23;100.00;100814.09;10340890;28;20046;-69
2024/01/14 12:37:43;;;;;;;1999.90;999.90;;;;;;;2.23;100.00;100803.75;10341308;28;20050;-70
2024/01/14 12:42:46;;;;;;;1999.90;999.90;;;;;;;2.45;100.00;100795.50;10339612;28;20161;-70
2024/01/14 12:48:04;;;;;;;1999.90;999.90;;;;;;;2.30;100.00;100783.81;10340721;28;20050;-70
2024/01/14 12:53:12;;;;;;;1999.90;999.90;;;;;;;2.38;100.00;100777.56;10340313;28;20046;-70
2024/01/14 12:58:15;;;;;;;1999.90;999.90;;;;;;;2.49;100.00;100766.97;10339244;28;20081;-69
2024/01/14 13:03:17;;;;;;;1999.90;999.90;;;;;;;2.14;100.00;100760.91;10340240;28;20105;-69
2024/01/14 13:08:19;;;;;;;1999.90;999.90;;;;;;;1.94;100.00;100763.94;10338798;28;20081;-69
2024/01/14 13:13:22;;;;;;;1999.90;999.90;;;;;;;2.05;100.00;100753.34;10339525;28;20047;-70
2024/01/14 13:18:24;;;;;;;1999.90;999.90;;;;;;;2.07;100.00;100743.00;10338292;28;20057;-69
2024/01/14 13:23:27;;;;;;;1999.90;999.90;;;;;;;2.02;100.00;100743.97;10339255;28;20055;-69
2024/01/14 13:28:29;;;;;;;1999.90;999.90;;;;;;;2.09;100.00;100733.50;10338384;28;20379;-69
2024/01/14 13:33:32;;;;;;;1999.90;999.90;;;;;;;2.02;100.00;100717.28;10337441;28;20397;-70
2024/01/14 13:38:35;;;;;;;1999.90;999.90;;;;;;;1.97;100.00;100716.56;10337067;28;20066;-69
2024/01/14 13:43:37;;;;;;;1999.90;999.90;;;;;;;1.80;100.00;100712.63;10338351;28;20080;-70
2024/01/14 13:48:40;;;;;;;1999.90;999.90;;;;;;;1.89;100.00;100713.28;10338738;28;20089;-70
2024/01/14 13:53:42;;;;;;;1999.90;999.90;;;;;;;2.17;100.00;100706.59;10337852;28;20482;-70
2024/01/14 13:58:59;;;;;;;1999.90;999.90;;;;;;;2.03;100.00;100694.03;10337728;28;20401;-70
2024/01/14 14:04:02;;;;;;;1999.90;999.90;;;;;;;1.80;100.00;100691.09;10337750;28;20046;-69
2024/01/14 14:09:06;;;;;;;1999.90;999.90;;;;;;;1.83;100.00;100673.81;10337759;28;20055;-69
2024/01/14 14:14:10;;;;;;;1999.90;999.90;;;;;;;1.84;100.00;100677.25;10336107;28;20054;-69
2024/01/14 14:19:14;;;;;;;1999.90;999.90;;;;;;;1.62;100.00;100671.72;10335613;28;20413;-69
2024/01/14 14:24:17;;;;;;;1999.90;999.90;;;;;;;1.85;100.00;100669.47;10335723;28;20410;-69
2024/01/14 14:29:19;;;;;;;1999.90;999.90;;;;;;;1.77;100.00;100648.13;10336715;28;20129;-69
2024/01/14 14:34:26;;;;;;;1999.90;999.90;;;;;;;1.56;100.00;100631.41;10336609;28;20046;-70
2024/01/14 14:39:29;;;;;;;1999.90;999.90;;;;;;;1.80;100.00;100614.50;10336254;28;20468;-70
2024/01/14 14:44:32;;;;;;;1999.90;999.90;;;;;;;1.82;100.00;100617.06;10336001;28;20078;-70
2024/01/14 14:49:34;;;;;;;1999.90;999.90;;;;;;;1.70;100.00;100620.78;10335647;28;20046;-70
2024/01/14 14:54:37;;;;;;;1999.90;999.90;;;;;;;1.90;100.00;100622.03;10335589;28;20054;-70
2024/01/14 14:59:40;;;;;;;1999.90;999.90;;;;;;;1.79;100.00;100606.81;10335640;28;20061;-70
2024/01/14 15:04:42;;;;;;;1999.90;999.90;;;;;;;1.72;100.00;100597.53;10335365;28;20046;-70
2024/01/14 15:09:48;;;;;;;1999.90;999.90;;;;;;;1.53;100.00;100582.47;10335334;28;20050;-69
2024/01/14 15:14:51;;;;;;;1999.90;999.90;;;;;;;1.82;100.00;100578.34;10335058;28;20073;-70
2024/01/14 15:19:53;;;;;;;1999.90;999.90;;;;;;;1.53;100.00;100577.31;10335270;28;20053;-69
2024/01/14 15:24:56;;;;;;;1999.90;999.90;;;;;;;1.77;100.00;100568.13;10334526;28;20074;-69
2024/01/14 15:29:58;;;;;;;1999.90;999.90;;;;;;;1.72;100.00;100557.06;10334325;28;20062;-70
2024/01/14 15:35:01;;;;;;;1999.90;999.90;;;;;;;1.69;100.00;100556.28;10334462;28;20089;-70
2024/01/14 15:40:04;;;;;;;1999.90;999.90;;;;;;;1.44;100.00;100557.72;10333859;28;20529;-70
2024/01/14 15:45:06;;;;;;;1999.90;999.90;;;;;;;1.56;100.00;100560.88;10333952;28;20478;-69
2024/01/14 15:50:09;;;;;;;1999.90;999.90;;;;;;;1.52;100.00;100539.47;10334049;28;20050;-69
2024/01/14 15:55:11;;;;;;;1999.90;999.90;;;;;;;1.48;100.00;100546.44;10334167;28;20128;-70
2024/01/14 16:00:14;;;;;;;1999.90;999.90;;;;;;;1.52;100.00;100529.16;10331902;28;20050;-69
2024/01/14 16:05:17;;;;;;;1999.90;999.90;;;;;;;1.59;100.00;100535.84;10332346;28;20057;-69
2024/01/14 16:10:19;;;;;;;1999.90;999.90;;;;;;;1.45;100.00;100512.97;10333707;28;20046;-70
2024/01/14 16:15:22;;;;;;;1999.90;999.90;;;;;;;1.40;100.00;100521.72;10332579;28;20051;-69
2024/01/14 16:20:24;;;;;;;1999.90;999.90;;;;;;;1.49;100.00;100519.75;10332423;28;20070;-70
2024/01/14 16:25:27;;;;;;;1999.90;999.90;;;;;;;1.53;100.00;100530.88;10333359;28;20081;-70
2024/01/14 16:30:29;;;;;;;1999.90;999.90;;;;;;;1.47;100.00;100543.91;10333050;28;20057;-69
2024/01/14 16:35:32;;;;;;;1999.90;999.90;;;;;;;1.52;100.00;100528.31;10333316;28;20134;-69
2024/01/14 16:40:53;;;;;;;1999.90;999.90;;;;;;;1.57;100.00;100524.72;10333161;28;20058;-69
2024/01/14 16:46:06;;;;;;;1999.90;999.90;;;;;;;1.54;100.00;100523.97;10333241;28;20066;-69
2024/01/14 16:51:09;;;;;;;1999.90;999.90;;;;;;;1.58;100.00;100504.94;10331488;28;20490;-70
2024/01/14 16:56:14;;;;;;;1999.90;999.90;;;;;;;1.71;100.00;100500.31;10331576;28;20046;-70
2024/01/14 17:01:17;;;;;;;1999.90;999.90;;;;;;;1.43;100.00;100483.78;10332747;28;20386;-69
2024/01/14 17:06:21;;;;;;;1999.90;999.90;;;;;;;1.67;100.00;100484.91;10332571;28;20050;-69
2024/01/14 17:11:24;;;;;;;1999.90;999.90;;;;;;;1.56;100.00;100497.22;10336634;28;20074;-70
2024/01/14 17:16:27;;;;;;;1999.90;999.90;;;;;;;1.66;100.00;100495.25;10339823;28;20060;-69
2024/01/14 17:21:29;;;;;;;1999.90;999.90;;;;;;;1.65;100.00;100493.59;10339517;28;20133;-69
2024/01/14 17:26:32;;;;;;;1999.90;999.90;;;;;;;1.47;100.00;100484.56;10339211;28;20075;-69
2024/01/14 17:31:36;;;;;;;1999.90;999.90;;;;;;;1.54;100.00;100477.50;10339338;28;20042;-69
2024/01/14 17:36:39;;;;;;;1999.90;999.90;;;;;;;1.40;100.00;100473.53;10337680;28;20081;-70
2024/01/14 17:41:42;;;;;;;1999.90;999.90;;;;;;;1.34;100.00;100465.09;10338828;28;20054;-69
2024/01/14 17:46:44;;;;;;;1999.90;999.90;;;;;;;1.06;100.00;100463.19;10338654;28;20061;-70
2024/01/14 17:51:46;;;;;;;1999.90;999.90;;;;;;;1.29;100.00;100437.72;10338045;28;20473;-69
2024/01/14 17:56:49;;;;;;;1999.90;999.90;;;;;;;1.10;100.00;100445.03;10338135;28;20389;-69
2024/01/14 18:01:52;;;;;;;1999.90;999.90;;;;;;;1.19;100.00;100441.38;10337859;28;20164;-69
2024/01/14 18:06:54;;;;;;;1999.90;999.90;;;;;;;1.10;100.00;100444.19;10337885;28;20050;-69
2024/01/14 18:11:57;;;;;;;1999.90;999.90;;;;;;;1.03;100.00;100443.47;10337407;28;20516;-69
2024/01/14 18:17:00;;;;;;;1999.90;999.90;;;;;;;1.04;100.00;100426.28;10337201;28;20457;-69
2024/01/14 18:22:06;;;;;;;1999.90;999.90;;;;;;;1.06;100.00;100421.91;10336314;28;20126;-69
2024/01/14 18:27:09;;;;;;;1999.90;999.90;;;;;;;0.91;100.00;100418.00;10337005;28;20054;-69
2024/01/14 18:32:11;;;;;;;1999.90;999.90;;;;;;;0.90;100.00;100426.59;10336860;28;20078;-69
2024/01/14 18:37:14;;;;;;;1999.90;999.90;;;;;;;0.95;100.00;100426.50;10336334;28;20134;-69
2024/01/14 18:42:16;;;;;;;1999.90;999.90;;;;;;;1.02;100.00;100421.16;10337012;28;20375;-69
2024/01/14 18:47:18;;;;;;;1999.90;999.90;;;;;;;1.17;100.00;100417.34;10336164;28;20046;-69
2024/01/14 18:52:21;;;;;;;1999.90;999.90;;;;;;;1.12;100.00;100398.56;10335901;28;20082;-69
2024/01/14 18:57:25;;;;;;;1999.90;999.90;;;;;;;1.24;100.00;100415.47;10334528;28;20398;-69
2024/01/14 19:02:28;;;;;;;1999.90;999.90;;;;;;;0.90;100.00;100426.59;10335392;28;20449;-69
2024/01/14 19:07:30;;;;;;;1999.90;999.90;;;;;;;1.02;100.00;100425.47;10335324;28;20521;-69
2024/01/14 19:12:33;;;;;;;1999.90;999.90;;;;;;;0.85;100.00;100421.56;10335122;28;20048;-69
2024/01/14 19:17:35;;;;;;;1999.90;999.90;;;;;;;0.84;100.00;100393.22;10335431;28;20085;-69
2024/01/14 19:22:38;;;;;;;1999.90;999.90;;;;;;;0.71;100.00;100408.16;10335418;28;20081;-69
2024/01/14 19:27:40;;;;;;;1999.90;999.90;;;;;;;0.65;100.00;100393.66;10334616;28;20050;-69
2024/01/14 19:32:42;;;;;;;1999.90;999.90;;;;;;;0.70;100.00;100380.69;10334639;28;20042;-69
2024/01/14 19:37:45;;;;;;;1999.90;999.90;;;;;;;0.83;100.00;100382.09;10334267;28;20060;-69
2024/01/14 19:42:48;;;;;;;1999.90;999.90;;;;;;;0.79;100.00;100367.59;10334347;28;20050;-69
2024/01/14 19:47:50;;;;;;;1999.90;999.90;;;;;;;0.84;100.00;100363.16;10334036;28;20478;-69
2024/01/14 19:52:52;;;;;;;1999.90;999.90;;;;;;;0.89;100.00;100366.50;10333902;28;20047;-69
2024/01/14 19:57:55;;;;;;;1999.90;999.90;;;;;;;0.91;100.00;100387.06;10332643;28;20386;-69
2024/01/14 20:02:57;;;;;;;1999.90;999.90;;;;;;;0.87;100.00;100375.13;10333882;28;20085;-69
2024/01/14 20:08:00;;;;;;;1999.90;999.90;;;;;;;1.08;100.00;100372.03;10333653;28;20058;-69
2024/01/14 20:13:02;;;;;;;1999.90;999.90;;;;;;;1.06;100.00;100371.22;10333137;28;20521;-69
2024/01/14 20:18:05;;;;;;;1999.90;999.90;;;;;;;1.11;100.00;100361.63;10332267;28;20097;-69
2024/01/14 20:23:08;;;;;;;1999.90;999.90;;;;;;;1.11;100.00;100343.59;10333471;28;20150;-69
2024/01/14 20:28:10;;;;;;;1999.90;999.90;;;;;;;1.08;100.00;100342.81;10333245;28;20059;-70
2024/01/14 20:33:13;;;;;;;1999.90;999.90;;;;;;;1.15;100.00;100331.47;10333035;28;20486;-70
2024/01/14 20:38:16;;;;;;;1999.90;999.90;;;;;;;1.18;100.00;100322.78;10333162;28;20062;-70
2024/01/14 20:43:18;;;;;;;1999.90;999.90;;;;;;;1.19;100.00;100327.91;10332919;28;20046;-70
2024/01/14 20:48:21;;;;;;;1999.90;999.90;;;;;;;1.36;100.00;100330.06;10340516;28;20417;-70
2024/01/14 20:53:24;;;;;;;1999.90;999.90;;;;;;;1.40;100.00;100333.41;10348261;23;20402;-69
2024/01/14 20:58:26;;;;;;;1999.90;999.90;;;;;;;1.27;100.00;100325.97;10339469;28;20101;-70
2024/01/14 21:03:29;;;;;;;1999.90;999.90;;;;;;;1.36;100.00;100316.28;10340171;28;20054;-69
2024/01/14 21:08:31;;;;;;;1999.90;999.90;;;;;;;1.44;100.00;100311.78;10339975;28;20573;-70
2024/01/14 21:13:33;;;;;;;1999.90;999.90;;;;;;;1.19;100.00;100309.00;10339667;28;20474;-70
2024/01/14 21:18:36;;;;;;;1999.90;999.90;;;;;;;1.25;100.00;100321.75;10339652;28;20058;-70
2024/01/14 21:23:40;;;;;;;1999.90;999.90;;;;;;;1.27;100.00;100313.06;10339564;28;20054;-70
2024/01/14 21:28:42;;;;;;;1999.90;999.90;;;;;;;1.28;100.00;100313.94;10339140;28;20054;-70
2024/01/14 21:33:45;;;;;;;1999.90;999.90;;;;;;;1.33;100.00;100303.47;10339112;28;20057;-70
2024/01/14 21:38:47;;;;;;;1999.90;999.90;;;;;;;1.17;100.00;100303.06;10338885;28;20097;-70
2024/01/14 21:43:50;;;;;;;1999.90;999.90;;;;;;;1.23;100.00;100315.81;10338956;28;20074;-69
2024/01/14 21:48:52;;;;;;;1999.90;999.90;;;;;;;1.19;100.00;100327.91;10338414;28;20566;-69
2024/01/14 21:53:55;;;;;;;1999.90;999.90;;;;;;;1.11;100.00;100314.38;10338063;28;20134;-69
2024/01/14 21:58:58;;;;;;;1999.90;999.90;;;;;;;0.96;100.00;100315.63;10335956;28;20050;-70